sensor_id;sensor_type;location;lat;lon;timestamp;P1;durP1;ratioP1;P2;durP2;ratioP2
55007;SDS011;40902;45.116;21.296;2023-04-03T00:01:28;8.00;;;5.85;;
55007;SDS011;40902;45.116;21.296;2023-04-03T00:03:54;7.53;;;5.65;;
55007;SDS011;40902;45.116;21.296;2023-04-03T00:06:20;8.40;;;6.20;;
55007;SDS011;40902;45.116;21.296;2023-04-03T00:08:46;6.72;;;5.28;;
55007;SDS011;40902;45.116;21.296;2023-04-03T00:11:12;7.95;;;5.90;;
55007;SDS011;40902;45.116;21.296;2023-04-03T00:13:38;8.90;;;5.78;;
55007;SDS011;40902;45.116;21.296;2023-04-03T00:16:05;6.90;;;5.88;;
55007;SDS011;40902;45.116;21.296;2023-04-03T00:18:32;11.15;;;7.82;;
55007;SDS011;40902;45.116;21.296;2023-04-03T00:20:58;15.68;;;11.48;;
55007;SDS011;40902;45.116;21.296;2023-04-03T00:23:23;13.93;;;11.13;;
55007;SDS011;40902;45.116;21.296;2023-04-03T00:25:50;13.05;;;9.57;;
55007;SDS011;40902;45.116;21.296;2023-04-03T00:28:16;8.85;;;7.68;;
55007;SDS011;40902;45.116;21.296;2023-04-03T00:30:41;11.10;;;8.30;;
55007;SDS011;40902;45.116;21.296;2023-04-03T00:33:08;12.65;;;9.23;;
55007;SDS011;40902;45.116;21.296;2023-04-03T00:35:38;9.13;;;7.63;;
55007;SDS011;40902;45.116;21.296;2023-04-03T00:38:03;9.73;;;7.80;;
55007;SDS011;40902;45.116;21.296;2023-04-03T00:40:32;10.43;;;8.18;;
55007;SDS011;40902;45.116;21.296;2023-04-03T00:43:05;10.82;;;7.78;;
55007;SDS011;40902;45.116;21.296;2023-04-03T00:45:41;10.05;;;7.55;;
55007;SDS011;40902;45.116;21.296;2023-04-03T00:48:10;11.77;;;8.10;;
55007;SDS011;40902;45.116;21.296;2023-04-03T00:50:40;9.82;;;7.53;;
55007;SDS011;40902;45.116;21.296;2023-04-03T00:53:08;10.23;;;8.02;;
55007;SDS011;40902;45.116;21.296;2023-04-03T00:55:37;10.63;;;7.50;;
55007;SDS011;40902;45.116;21.296;2023-04-03T00:58:04;10.07;;;7.78;;
55007;SDS011;40902;45.116;21.296;2023-04-03T01:00:32;9.50;;;7.90;;
55007;SDS011;40902;45.116;21.296;2023-04-03T01:02:58;9.90;;;7.43;;
55007;SDS011;40902;45.116;21.296;2023-04-03T01:05:24;12.55;;;8.20;;
55007;SDS011;40902;45.116;21.296;2023-04-03T01:07:50;12.02;;;8.43;;
55007;SDS011;40902;45.116;21.296;2023-04-03T01:10:17;11.27;;;7.55;;
55007;SDS011;40902;45.116;21.296;2023-04-03T01:12:45;10.45;;;7.82;;
55007;SDS011;40902;45.116;21.296;2023-04-03T01:15:17;9.63;;;7.68;;
55007;SDS011;40902;45.116;21.296;2023-04-03T01:17:55;12.68;;;8.57;;
55007;SDS011;40902;45.116;21.296;2023-04-03T01:23:11;10.45;;;8.25;;
55007;SDS011;40902;45.116;21.296;2023-04-03T01:25:48;11.15;;;8.43;;
55007;SDS011;40902;45.116;21.296;2023-04-03T01:28:21;10.52;;;8.30;;
55007;SDS011;40902;45.116;21.296;2023-04-03T01:33:30;9.85;;;7.75;;
55007;SDS011;40902;45.116;21.296;2023-04-03T01:35:56;10.93;;;8.50;;
55007;SDS011;40902;45.116;21.296;2023-04-03T01:38:22;13.15;;;9.55;;
55007;SDS011;40902;45.116;21.296;2023-04-03T01:40:48;10.88;;;8.25;;
55007;SDS011;40902;45.116;21.296;2023-04-03T01:43:13;10.48;;;8.57;;
55007;SDS011;40902;45.116;21.296;2023-04-03T01:45:39;9.32;;;7.85;;
55007;SDS011;40902;45.116;21.296;2023-04-03T01:48:05;10.20;;;7.50;;
55007;SDS011;40902;45.116;21.296;2023-04-03T01:50:30;9.70;;;7.93;;
55007;SDS011;40902;45.116;21.296;2023-04-03T01:52:56;10.10;;;7.78;;
55007;SDS011;40902;45.116;21.296;2023-04-03T01:55:22;10.23;;;7.57;;
55007;SDS011;40902;45.116;21.296;2023-04-03T01:57:48;10.95;;;7.80;;
55007;SDS011;40902;45.116;21.296;2023-04-03T02:00:14;9.30;;;7.35;;
55007;SDS011;40902;45.116;21.296;2023-04-03T02:02:40;10.02;;;7.57;;
55007;SDS011;40902;45.116;21.296;2023-04-03T02:05:06;9.02;;;7.18;;
55007;SDS011;40902;45.116;21.296;2023-04-03T02:07:32;8.95;;;6.63;;
55007;SDS011;40902;45.116;21.296;2023-04-03T02:09:58;9.93;;;7.10;;
55007;SDS011;40902;45.116;21.296;2023-04-03T02:12:23;11.05;;;7.88;;
55007;SDS011;40902;45.116;21.296;2023-04-03T02:14:49;8.88;;;7.00;;
55007;SDS011;40902;45.116;21.296;2023-04-03T02:17:15;10.98;;;8.05;;
55007;SDS011;40902;45.116;21.296;2023-04-03T02:19:40;12.27;;;8.50;;
55007;SDS011;40902;45.116;21.296;2023-04-03T02:22:06;10.13;;;8.18;;
55007;SDS011;40902;45.116;21.296;2023-04-03T02:24:32;10.00;;;8.60;;
55007;SDS011;40902;45.116;21.296;2023-04-03T02:26:58;10.75;;;8.27;;
55007;SDS011;40902;45.116;21.296;2023-04-03T02:29:24;10.20;;;8.73;;
55007;SDS011;40902;45.116;21.296;2023-04-03T02:31:50;11.30;;;8.25;;
55007;SDS011;40902;45.116;21.296;2023-04-03T02:34:16;9.57;;;8.27;;
55007;SDS011;40902;45.116;21.296;2023-04-03T02:36:42;10.98;;;8.32;;
55007;SDS011;40902;45.116;21.296;2023-04-03T02:39:08;10.77;;;8.98;;
55007;SDS011;40902;45.116;21.296;2023-04-03T02:41:34;11.13;;;8.77;;
55007;SDS011;40902;45.116;21.296;2023-04-03T02:44:04;10.02;;;8.15;;
55007;SDS011;40902;45.116;21.296;2023-04-03T02:46:31;9.55;;;8.18;;
55007;SDS011;40902;45.116;21.296;2023-04-03T02:48:57;10.77;;;8.77;;
55007;SDS011;40902;45.116;21.296;2023-04-03T02:51:23;14.88;;;8.38;;
55007;SDS011;40902;45.116;21.296;2023-04-03T02:53:49;10.30;;;7.65;;
55007;SDS011;40902;45.116;21.296;2023-04-03T02:56:15;11.18;;;7.85;;
55007;SDS011;40902;45.116;21.296;2023-04-03T02:58:42;12.18;;;8.93;;
55007;SDS011;40902;45.116;21.296;2023-04-03T03:01:08;9.93;;;8.18;;
55007;SDS011;40902;45.116;21.296;2023-04-03T03:03:33;13.98;;;8.93;;
55007;SDS011;40902;45.116;21.296;2023-04-03T03:06:09;12.05;;;8.10;;
55007;SDS011;40902;45.116;21.296;2023-04-03T03:08:37;12.65;;;8.70;;
55007;SDS011;40902;45.116;21.296;2023-04-03T03:11:03;10.27;;;8.40;;
55007;SDS011;40902;45.116;21.296;2023-04-03T03:13:30;12.25;;;9.00;;
55007;SDS011;40902;45.116;21.296;2023-04-03T03:15:56;14.55;;;9.32;;
55007;SDS011;40902;45.116;21.296;2023-04-03T03:18:22;15.00;;;9.57;;
55007;SDS011;40902;45.116;21.296;2023-04-03T03:21:06;15.55;;;9.68;;
55007;SDS011;40902;45.116;21.296;2023-04-03T03:23:32;16.10;;;11.38;;
55007;SDS011;40902;45.116;21.296;2023-04-03T03:25:59;15.93;;;11.07;;
55007;SDS011;40902;45.116;21.296;2023-04-03T03:28:26;17.02;;;10.07;;
55007;SDS011;40902;45.116;21.296;2023-04-03T03:30:52;14.68;;;10.35;;
55007;SDS011;40902;45.116;21.296;2023-04-03T03:33:18;17.45;;;11.10;;
55007;SDS011;40902;45.116;21.296;2023-04-03T03:35:44;14.95;;;10.20;;
55007;SDS011;40902;45.116;21.296;2023-04-03T03:38:10;17.02;;;10.98;;
55007;SDS011;40902;45.116;21.296;2023-04-03T03:40:36;15.77;;;11.27;;
55007;SDS011;40902;45.116;21.296;2023-04-03T03:43:02;17.73;;;10.73;;
55007;SDS011;40902;45.116;21.296;2023-04-03T03:45:28;15.23;;;9.93;;
55007;SDS011;40902;45.116;21.296;2023-04-03T03:47:54;16.08;;;11.30;;
55007;SDS011;40902;45.116;21.296;2023-04-03T03:50:19;14.10;;;9.68;;
55007;SDS011;40902;45.116;21.296;2023-04-03T03:52:45;16.17;;;10.43;;
55007;SDS011;40902;45.116;21.296;2023-04-03T03:55:11;18.42;;;10.85;;
55007;SDS011;40902;45.116;21.296;2023-04-03T03:57:37;21.55;;;10.40;;
55007;SDS011;40902;45.116;21.296;2023-04-03T04:00:02;15.48;;;11.30;;
55007;SDS011;40902;45.116;21.296;2023-04-03T04:02:29;16.42;;;10.60;;
55007;SDS011;40902;45.116;21.296;2023-04-03T04:04:55;16.42;;;10.70;;
55007;SDS011;40902;45.116;21.296;2023-04-03T04:07:21;16.95;;;10.65;;
55007;SDS011;40902;45.116;21.296;2023-04-03T04:09:47;15.70;;;10.38;;
55007;SDS011;40902;45.116;21.296;2023-04-03T04:12:13;17.02;;;11.00;;
55007;SDS011;40902;45.116;21.296;2023-04-03T04:14:39;15.20;;;9.90;;
55007;SDS011;40902;45.116;21.296;2023-04-03T04:17:05;15.15;;;10.25;;
55007;SDS011;40902;45.116;21.296;2023-04-03T04:19:31;13.82;;;9.05;;
55007;SDS011;40902;45.116;21.296;2023-04-03T04:21:58;12.50;;;8.75;;
55007;SDS011;40902;45.116;21.296;2023-04-03T04:24:23;13.55;;;8.77;;
55007;SDS011;40902;45.116;21.296;2023-04-03T04:26:49;15.02;;;9.95;;
55007;SDS011;40902;45.116;21.296;2023-04-03T04:29:15;14.00;;;9.07;;
55007;SDS011;40902;45.116;21.296;2023-04-03T04:31:40;15.15;;;9.38;;
55007;SDS011;40902;45.116;21.296;2023-04-03T04:34:06;15.85;;;8.75;;
55007;SDS011;40902;45.116;21.296;2023-04-03T04:36:32;13.57;;;9.63;;
55007;SDS011;40902;45.116;21.296;2023-04-03T04:38:58;12.48;;;9.23;;
55007;SDS011;40902;45.116;21.296;2023-04-03T04:41:24;15.27;;;9.10;;
55007;SDS011;40902;45.116;21.296;2023-04-03T04:43:50;13.07;;;8.68;;
55007;SDS011;40902;45.116;21.296;2023-04-03T04:46:16;17.08;;;8.80;;
55007;SDS011;40902;45.116;21.296;2023-04-03T04:48:42;12.82;;;8.27;;
55007;SDS011;40902;45.116;21.296;2023-04-03T04:51:09;15.20;;;9.02;;
55007;SDS011;40902;45.116;21.296;2023-04-03T04:53:34;15.90;;;11.10;;
55007;SDS011;40902;45.116;21.296;2023-04-03T04:56:00;12.00;;;8.38;;
55007;SDS011;40902;45.116;21.296;2023-04-03T04:58:26;11.07;;;8.13;;
55007;SDS011;40902;45.116;21.296;2023-04-03T05:01:02;15.02;;;8.70;;
55007;SDS011;40902;45.116;21.296;2023-04-03T05:03:29;12.02;;;7.72;;
55007;SDS011;40902;45.116;21.296;2023-04-03T05:05:55;10.38;;;7.55;;
55007;SDS011;40902;45.116;21.296;2023-04-03T05:08:21;15.43;;;8.02;;
55007;SDS011;40902;45.116;21.296;2023-04-03T05:10:47;12.20;;;7.75;;
55007;SDS011;40902;45.116;21.296;2023-04-03T05:13:12;11.60;;;7.82;;
55007;SDS011;40902;45.116;21.296;2023-04-03T05:15:38;11.05;;;7.80;;
55007;SDS011;40902;45.116;21.296;2023-04-03T05:18:04;9.45;;;7.22;;
55007;SDS011;40902;45.116;21.296;2023-04-03T05:20:30;10.27;;;6.95;;
55007;SDS011;40902;45.116;21.296;2023-04-03T05:22:57;10.45;;;7.53;;
55007;SDS011;40902;45.116;21.296;2023-04-03T05:25:23;11.02;;;7.97;;
55007;SDS011;40902;45.116;21.296;2023-04-03T05:27:49;9.50;;;7.30;;
55007;SDS011;40902;45.116;21.296;2023-04-03T05:30:15;8.80;;;6.45;;
55007;SDS011;40902;45.116;21.296;2023-04-03T05:32:41;10.00;;;6.80;;
55007;SDS011;40902;45.116;21.296;2023-04-03T05:35:07;13.93;;;7.53;;
55007;SDS011;40902;45.116;21.296;2023-04-03T05:37:34;12.68;;;7.38;;
55007;SDS011;40902;45.116;21.296;2023-04-03T05:40:00;11.73;;;7.43;;
55007;SDS011;40902;45.116;21.296;2023-04-03T05:42:26;12.73;;;7.07;;
55007;SDS011;40902;45.116;21.296;2023-04-03T05:44:52;12.10;;;7.03;;
55007;SDS011;40902;45.116;21.296;2023-04-03T05:47:18;9.50;;;6.90;;
55007;SDS011;40902;45.116;21.296;2023-04-03T05:49:44;9.63;;;6.85;;
55007;SDS011;40902;45.116;21.296;2023-04-03T05:54:55;11.27;;;7.03;;
55007;SDS011;40902;45.116;21.296;2023-04-03T05:57:22;9.07;;;6.25;;
55007;SDS011;40902;45.116;21.296;2023-04-03T05:59:47;9.40;;;6.85;;
55007;SDS011;40902;45.116;21.296;2023-04-03T06:02:20;9.82;;;6.20;;
55007;SDS011;40902;45.116;21.296;2023-04-03T06:04:48;8.32;;;6.18;;
55007;SDS011;40902;45.116;21.296;2023-04-03T06:07:17;8.73;;;6.25;;
55007;SDS011;40902;45.116;21.296;2023-04-03T06:09:46;9.32;;;6.07;;
55007;SDS011;40902;45.116;21.296;2023-04-03T06:12:12;8.82;;;6.03;;
55007;SDS011;40902;45.116;21.296;2023-04-03T06:14:37;9.30;;;6.43;;
55007;SDS011;40902;45.116;21.296;2023-04-03T06:17:03;9.23;;;6.50;;
55007;SDS011;40902;45.116;21.296;2023-04-03T06:19:29;10.55;;;6.45;;
55007;SDS011;40902;45.116;21.296;2023-04-03T06:21:56;8.18;;;6.07;;
55007;SDS011;40902;45.116;21.296;2023-04-03T06:24:21;9.18;;;6.20;;
55007;SDS011;40902;45.116;21.296;2023-04-03T06:26:50;11.90;;;6.43;;
55007;SDS011;40902;45.116;21.296;2023-04-03T06:29:17;11.00;;;6.68;;
55007;SDS011;40902;45.116;21.296;2023-04-03T06:31:44;10.98;;;6.93;;
55007;SDS011;40902;45.116;21.296;2023-04-03T06:34:10;13.55;;;7.25;;
55007;SDS011;40902;45.116;21.296;2023-04-03T06:36:38;9.02;;;6.25;;
55007;SDS011;40902;45.116;21.296;2023-04-03T06:39:04;10.02;;;6.40;;
55007;SDS011;40902;45.116;21.296;2023-04-03T06:41:30;11.25;;;6.95;;
55007;SDS011;40902;45.116;21.296;2023-04-03T06:43:56;9.38;;;7.00;;
55007;SDS011;40902;45.116;21.296;2023-04-03T06:46:23;9.23;;;6.78;;
55007;SDS011;40902;45.116;21.296;2023-04-03T06:48:50;7.85;;;6.20;;
55007;SDS011;40902;45.116;21.296;2023-04-03T06:51:24;8.48;;;6.75;;
55007;SDS011;40902;45.116;21.296;2023-04-03T06:53:52;8.32;;;6.00;;
55007;SDS011;40902;45.116;21.296;2023-04-03T06:56:19;10.98;;;6.57;;
55007;SDS011;40902;45.116;21.296;2023-04-03T06:58:45;9.65;;;7.35;;
55007;SDS011;40902;45.116;21.296;2023-04-03T07:01:12;10.00;;;7.22;;
55007;SDS011;40902;45.116;21.296;2023-04-03T07:03:39;8.18;;;6.53;;
55007;SDS011;40902;45.116;21.296;2023-04-03T07:06:06;9.77;;;7.63;;
55007;SDS011;40902;45.116;21.296;2023-04-03T07:08:34;9.90;;;7.18;;
55007;SDS011;40902;45.116;21.296;2023-04-03T07:11:00;8.93;;;7.07;;
55007;SDS011;40902;45.116;21.296;2023-04-03T07:13:26;10.60;;;7.30;;
55007;SDS011;40902;45.116;21.296;2023-04-03T07:15:52;9.60;;;6.85;;
55007;SDS011;40902;45.116;21.296;2023-04-03T07:18:18;10.38;;;7.78;;
55007;SDS011;40902;45.116;21.296;2023-04-03T07:20:44;9.77;;;8.02;;
55007;SDS011;40902;45.116;21.296;2023-04-03T07:23:10;9.23;;;7.55;;
55007;SDS011;40902;45.116;21.296;2023-04-03T07:25:36;10.02;;;7.80;;
55007;SDS011;40902;45.116;21.296;2023-04-03T07:28:02;11.10;;;8.15;;
55007;SDS011;40902;45.116;21.296;2023-04-03T07:30:28;9.65;;;7.28;;
55007;SDS011;40902;45.116;21.296;2023-04-03T07:32:54;11.77;;;9.38;;
55007;SDS011;40902;45.116;21.296;2023-04-03T07:35:20;9.15;;;7.32;;
55007;SDS011;40902;45.116;21.296;2023-04-03T07:37:46;11.20;;;7.85;;
55007;SDS011;40902;45.116;21.296;2023-04-03T07:40:12;7.50;;;6.43;;
55007;SDS011;40902;45.116;21.296;2023-04-03T07:42:37;8.10;;;6.40;;
55007;SDS011;40902;45.116;21.296;2023-04-03T07:45:03;8.35;;;6.25;;
55007;SDS011;40902;45.116;21.296;2023-04-03T07:47:29;8.48;;;5.90;;
55007;SDS011;40902;45.116;21.296;2023-04-03T07:49:56;9.55;;;6.80;;
55007;SDS011;40902;45.116;21.296;2023-04-03T07:52:22;9.63;;;6.72;;
55007;SDS011;40902;45.116;21.296;2023-04-03T07:54:48;9.02;;;7.10;;
55007;SDS011;40902;45.116;21.296;2023-04-03T07:57:14;11.02;;;7.13;;
55007;SDS011;40902;45.116;21.296;2023-04-03T07:59:40;10.57;;;7.72;;
55007;SDS011;40902;45.116;21.296;2023-04-03T08:02:11;9.90;;;6.35;;
55007;SDS011;40902;45.116;21.296;2023-04-03T08:04:37;7.90;;;5.95;;
55007;SDS011;40902;45.116;21.296;2023-04-03T08:07:03;7.07;;;5.70;;
55007;SDS011;40902;45.116;21.296;2023-04-03T08:09:29;6.25;;;5.20;;
55007;SDS011;40902;45.116;21.296;2023-04-03T08:11:55;7.35;;;6.00;;
55007;SDS011;40902;45.116;21.296;2023-04-03T08:14:20;8.93;;;5.80;;
55007;SDS011;40902;45.116;21.296;2023-04-03T08:16:46;7.97;;;5.70;;
55007;SDS011;40902;45.116;21.296;2023-04-03T08:19:13;7.10;;;5.25;;
55007;SDS011;40902;45.116;21.296;2023-04-03T08:21:41;9.57;;;6.25;;
55007;SDS011;40902;45.116;21.296;2023-04-03T08:24:07;9.07;;;7.18;;
55007;SDS011;40902;45.116;21.296;2023-04-03T08:26:34;38.53;;;26.75;;
55007;SDS011;40902;45.116;21.296;2023-04-03T08:29:00;16.90;;;10.98;;
55007;SDS011;40902;45.116;21.296;2023-04-03T08:31:26;10.88;;;7.63;;
55007;SDS011;40902;45.116;21.296;2023-04-03T08:33:52;9.25;;;7.15;;
55007;SDS011;40902;45.116;21.296;2023-04-03T08:38:54;7.40;;;5.88;;
55007;SDS011;40902;45.116;21.296;2023-04-03T08:41:35;7.90;;;5.57;;
55007;SDS011;40902;45.116;21.296;2023-04-03T08:49:35;6.32;;;5.07;;
55007;SDS011;40902;45.116;21.296;2023-04-03T08:52:17;8.82;;;7.18;;
55007;SDS011;40902;45.116;21.296;2023-04-03T08:57:33;10.70;;;6.30;;
55007;SDS011;40902;45.116;21.296;2023-04-03T09:00:05;10.82;;;8.25;;
55007;SDS011;40902;45.116;21.296;2023-04-03T09:02:41;8.18;;;5.78;;
55007;SDS011;40902;45.116;21.296;2023-04-03T09:05:18;7.65;;;5.75;;
55007;SDS011;40902;45.116;21.296;2023-04-03T09:08:23;7.10;;;5.55;;
55007;SDS011;40902;45.116;21.296;2023-04-03T09:15:59;9.88;;;7.95;;
55007;SDS011;40902;45.116;21.296;2023-04-03T09:18:31;6.47;;;4.75;;
55007;SDS011;40902;45.116;21.296;2023-04-03T09:21:08;8.35;;;5.70;;
55007;SDS011;40902;45.116;21.296;2023-04-03T09:23:46;7.20;;;5.18;;
55007;SDS011;40902;45.116;21.296;2023-04-03T09:26:25;6.72;;;4.63;;
55007;SDS011;40902;45.116;21.296;2023-04-03T09:28:58;9.25;;;5.82;;
55007;SDS011;40902;45.116;21.296;2023-04-03T09:31:28;8.43;;;5.72;;
55007;SDS011;40902;45.116;21.296;2023-04-03T09:34:02;8.05;;;5.75;;
55007;SDS011;40902;45.116;21.296;2023-04-03T09:36:40;7.38;;;5.28;;
55007;SDS011;40902;45.116;21.296;2023-04-03T09:39:12;7.88;;;4.93;;
55007;SDS011;40902;45.116;21.296;2023-04-03T09:42:13;6.65;;;5.03;;
55007;SDS011;40902;45.116;21.296;2023-04-03T09:44:44;8.77;;;4.78;;
55007;SDS011;40902;45.116;21.296;2023-04-03T09:47:26;6.40;;;4.93;;
55007;SDS011;40902;45.116;21.296;2023-04-03T09:52:37;7.18;;;5.57;;
55007;SDS011;40902;45.116;21.296;2023-04-03T09:55:08;7.00;;;5.03;;
55007;SDS011;40902;45.116;21.296;2023-04-03T09:57:38;8.00;;;5.68;;
55007;SDS011;40902;45.116;21.296;2023-04-03T10:00:06;7.15;;;5.13;;
55007;SDS011;40902;45.116;21.296;2023-04-03T10:02:44;6.95;;;4.80;;
55007;SDS011;40902;45.116;21.296;2023-04-03T10:10:32;7.90;;;5.25;;
55007;SDS011;40902;45.116;21.296;2023-04-03T10:13:31;6.47;;;5.07;;
55007;SDS011;40902;45.116;21.296;2023-04-03T10:15:58;8.02;;;5.40;;
55007;SDS011;40902;45.116;21.296;2023-04-03T10:18:32;8.90;;;5.85;;
55007;SDS011;40902;45.116;21.296;2023-04-03T10:23:44;6.45;;;5.38;;
55007;SDS011;40902;45.116;21.296;2023-04-03T10:34:31;7.38;;;4.88;;
55007;SDS011;40902;45.116;21.296;2023-04-03T10:42:57;12.30;;;5.63;;
55007;SDS011;40902;45.116;21.296;2023-04-03T10:48:33;7.32;;;5.38;;
55007;SDS011;40902;45.116;21.296;2023-04-03T10:51:07;6.28;;;4.93;;
55007;SDS011;40902;45.116;21.296;2023-04-03T11:04:37;7.57;;;5.57;;
55007;SDS011;40902;45.116;21.296;2023-04-03T11:09:44;12.50;;;9.77;;
55007;SDS011;40902;45.116;21.296;2023-04-03T11:12:15;9.23;;;7.13;;
55007;SDS011;40902;45.116;21.296;2023-04-03T11:14:46;9.35;;;6.28;;
55007;SDS011;40902;45.116;21.296;2023-04-03T11:25:14;9.57;;;6.05;;
55007;SDS011;40902;45.116;21.296;2023-04-03T11:28:05;10.35;;;6.45;;
55007;SDS011;40902;45.116;21.296;2023-04-03T11:33:32;11.73;;;6.88;;
55007;SDS011;40902;45.116;21.296;2023-04-03T11:36:21;12.60;;;8.35;;
55007;SDS011;40902;45.116;21.296;2023-04-03T11:39:00;9.02;;;6.35;;
55007;SDS011;40902;45.116;21.296;2023-04-03T11:41:35;9.23;;;5.53;;
55007;SDS011;40902;45.116;21.296;2023-04-03T11:44:02;7.07;;;5.53;;
55007;SDS011;40902;45.116;21.296;2023-04-03T11:46:49;14.57;;;8.52;;
55007;SDS011;40902;45.116;21.296;2023-04-03T12:16:21;9.15;;;5.40;;
55007;SDS011;40902;45.116;21.296;2023-04-03T12:27:26;16.80;;;10.60;;
55007;SDS011;40902;45.116;21.296;2023-04-03T12:42:56;6.80;;;4.50;;
55007;SDS011;40902;45.116;21.296;2023-04-03T12:45:43;4.20;;;3.13;;
55007;SDS011;40902;45.116;21.296;2023-04-03T12:48:18;8.45;;;3.63;;
55007;SDS011;40902;45.116;21.296;2023-04-03T12:50:47;4.27;;;3.30;;
55007;SDS011;40902;45.116;21.296;2023-04-03T12:53:18;5.38;;;3.50;;
55007;SDS011;40902;45.116;21.296;2023-04-03T12:55:47;8.35;;;3.72;;
55007;SDS011;40902;45.116;21.296;2023-04-03T12:58:23;13.27;;;8.93;;
55007;SDS011;40902;45.116;21.296;2023-04-03T13:03:29;13.13;;;10.00;;
55007;SDS011;40902;45.116;21.296;2023-04-03T13:06:00;7.63;;;5.03;;
55007;SDS011;40902;45.116;21.296;2023-04-03T13:08:27;13.35;;;9.25;;
55007;SDS011;40902;45.116;21.296;2023-04-03T13:11:04;5.72;;;3.97;;
55007;SDS011;40902;45.116;21.296;2023-04-03T13:13:34;13.98;;;9.60;;
55007;SDS011;40902;45.116;21.296;2023-04-03T13:16:01;7.30;;;5.03;;
55007;SDS011;40902;45.116;21.296;2023-04-03T13:18:35;6.68;;;4.43;;
55007;SDS011;40902;45.116;21.296;2023-04-03T13:23:33;10.95;;;7.38;;
55007;SDS011;40902;45.116;21.296;2023-04-03T13:26:02;8.25;;;5.70;;
55007;SDS011;40902;45.116;21.296;2023-04-03T13:28:29;8.75;;;5.38;;
55007;SDS011;40902;45.116;21.296;2023-04-03T13:33:35;18.13;;;11.98;;
55007;SDS011;40902;45.116;21.296;2023-04-03T13:36:13;13.40;;;7.45;;
55007;SDS011;40902;45.116;21.296;2023-04-03T13:38:43;17.40;;;10.77;;
55007;SDS011;40902;45.116;21.296;2023-04-03T13:41:44;9.00;;;5.60;;
55007;SDS011;40902;45.116;21.296;2023-04-03T13:47:37;9.45;;;6.50;;
55007;SDS011;40902;45.116;21.296;2023-04-03T13:52:17;6.32;;;3.92;;
55007;SDS011;40902;45.116;21.296;2023-04-03T13:54:57;6.70;;;3.00;;
55007;SDS011;40902;45.116;21.296;2023-04-03T13:57:25;5.65;;;3.03;;
55007;SDS011;40902;45.116;21.296;2023-04-03T13:59:51;7.85;;;3.67;;
55007;SDS011;40902;45.116;21.296;2023-04-03T14:02:18;4.82;;;3.30;;
55007;SDS011;40902;45.116;21.296;2023-04-03T14:04:56;4.78;;;2.72;;
55007;SDS011;40902;45.116;21.296;2023-04-03T14:07:26;7.35;;;4.20;;
55007;SDS011;40902;45.116;21.296;2023-04-03T14:09:54;3.65;;;2.35;;
55007;SDS011;40902;45.116;21.296;2023-04-03T14:14:52;6.45;;;2.20;;
55007;SDS011;40902;45.116;21.296;2023-04-03T14:17:19;7.15;;;2.47;;
55007;SDS011;40902;45.116;21.296;2023-04-03T14:19:47;7.50;;;2.10;;
55007;SDS011;40902;45.116;21.296;2023-04-03T14:22:16;5.63;;;2.47;;
55007;SDS011;40902;45.116;21.296;2023-04-03T14:24:42;7.78;;;2.80;;
55007;SDS011;40902;45.116;21.296;2023-04-03T14:27:19;6.88;;;3.00;;
55007;SDS011;40902;45.116;21.296;2023-04-03T14:29:50;7.90;;;3.28;;
55007;SDS011;40902;45.116;21.296;2023-04-03T14:32:17;7.90;;;3.40;;
55007;SDS011;40902;45.116;21.296;2023-04-03T14:34:45;9.02;;;3.20;;
55007;SDS011;40902;45.116;21.296;2023-04-03T14:37:14;12.25;;;3.28;;
55007;SDS011;40902;45.116;21.296;2023-04-03T14:39:41;5.68;;;2.28;;
55007;SDS011;40902;45.116;21.296;2023-04-03T14:42:14;6.03;;;2.22;;
55007;SDS011;40902;45.116;21.296;2023-04-03T14:44:45;6.20;;;2.78;;
55007;SDS011;40902;45.116;21.296;2023-04-03T14:47:14;8.57;;;2.90;;
55007;SDS011;40902;45.116;21.296;2023-04-03T14:49:42;6.28;;;2.80;;
55007;SDS011;40902;45.116;21.296;2023-04-03T14:52:27;10.10;;;4.57;;
55007;SDS011;40902;45.116;21.296;2023-04-03T14:54:55;10.45;;;4.45;;
55007;SDS011;40902;45.116;21.296;2023-04-03T14:57:22;6.45;;;2.88;;
55007;SDS011;40902;45.116;21.296;2023-04-03T14:59:50;9.63;;;4.85;;
55007;SDS011;40902;45.116;21.296;2023-04-03T15:04:53;13.88;;;3.13;;
55007;SDS011;40902;45.116;21.296;2023-04-03T15:07:19;7.97;;;3.60;;
55007;SDS011;40902;45.116;21.296;2023-04-03T15:09:45;7.20;;;2.80;;
55007;SDS011;40902;45.116;21.296;2023-04-03T15:12:11;8.15;;;2.88;;
55007;SDS011;40902;45.116;21.296;2023-04-03T15:14:37;8.50;;;2.88;;
55007;SDS011;40902;45.116;21.296;2023-04-03T15:17:04;7.70;;;3.35;;
55007;SDS011;40902;45.116;21.296;2023-04-03T15:19:36;9.68;;;3.83;;
55007;SDS011;40902;45.116;21.296;2023-04-03T15:22:02;11.43;;;4.28;;
55007;SDS011;40902;45.116;21.296;2023-04-03T15:24:28;14.05;;;5.38;;
55007;SDS011;40902;45.116;21.296;2023-04-03T15:26:54;10.32;;;2.70;;
55007;SDS011;40902;45.116;21.296;2023-04-03T15:29:20;17.80;;;6.70;;
55007;SDS011;40902;45.116;21.296;2023-04-03T15:31:45;15.05;;;4.93;;
55007;SDS011;40902;45.116;21.296;2023-04-03T15:34:11;11.18;;;3.40;;
55007;SDS011;40902;45.116;21.296;2023-04-03T15:36:38;13.20;;;4.05;;
55007;SDS011;40902;45.116;21.296;2023-04-03T15:39:03;12.77;;;4.35;;
55007;SDS011;40902;45.116;21.296;2023-04-03T15:41:29;10.43;;;3.88;;
55007;SDS011;40902;45.116;21.296;2023-04-03T15:43:54;8.57;;;3.88;;
55007;SDS011;40902;45.116;21.296;2023-04-03T15:46:20;11.57;;;2.20;;
55007;SDS011;40902;45.116;21.296;2023-04-03T15:48:46;6.15;;;2.28;;
55007;SDS011;40902;45.116;21.296;2023-04-03T15:51:12;15.52;;;3.83;;
55007;SDS011;40902;45.116;21.296;2023-04-03T15:53:37;8.48;;;2.65;;
55007;SDS011;40902;45.116;21.296;2023-04-03T15:56:03;11.75;;;4.43;;
55007;SDS011;40902;45.116;21.296;2023-04-03T15:58:30;9.38;;;4.88;;
55007;SDS011;40902;45.116;21.296;2023-04-03T16:00:56;7.32;;;3.17;;
55007;SDS011;40902;45.116;21.296;2023-04-03T16:03:22;8.25;;;3.42;;
55007;SDS011;40902;45.116;21.296;2023-04-03T16:05:49;19.30;;;3.83;;
55007;SDS011;40902;45.116;21.296;2023-04-03T16:08:16;10.77;;;3.45;;
55007;SDS011;40902;45.116;21.296;2023-04-03T16:10:43;9.68;;;3.58;;
55007;SDS011;40902;45.116;21.296;2023-04-03T16:13:10;8.52;;;2.97;;
55007;SDS011;40902;45.116;21.296;2023-04-03T16:15:36;11.77;;;2.78;;
55007;SDS011;40902;45.116;21.296;2023-04-03T16:18:02;12.63;;;2.85;;
55007;SDS011;40902;45.116;21.296;2023-04-03T16:20:29;11.98;;;2.67;;
55007;SDS011;40902;45.116;21.296;2023-04-03T16:22:56;11.13;;;2.47;;
55007;SDS011;40902;45.116;21.296;2023-04-03T16:25:24;6.32;;;2.40;;
55007;SDS011;40902;45.116;21.296;2023-04-03T16:27:49;9.25;;;3.05;;
55007;SDS011;40902;45.116;21.296;2023-04-03T16:30:15;7.22;;;2.85;;
55007;SDS011;40902;45.116;21.296;2023-04-03T16:32:41;11.05;;;3.10;;
55007;SDS011;40902;45.116;21.296;2023-04-03T16:35:07;6.68;;;1.95;;
55007;SDS011;40902;45.116;21.296;2023-04-03T16:37:35;14.02;;;3.03;;
55007;SDS011;40902;45.116;21.296;2023-04-03T16:40:02;19.20;;;8.88;;
55007;SDS011;40902;45.116;21.296;2023-04-03T16:42:29;9.25;;;3.13;;
55007;SDS011;40902;45.116;21.296;2023-04-03T16:44:54;13.25;;;3.63;;
55007;SDS011;40902;45.116;21.296;2023-04-03T16:47:20;9.18;;;2.58;;
55007;SDS011;40902;45.116;21.296;2023-04-03T16:49:46;9.82;;;2.85;;
55007;SDS011;40902;45.116;21.296;2023-04-03T16:52:12;11.38;;;2.83;;
55007;SDS011;40902;45.116;21.296;2023-04-03T16:54:38;8.85;;;2.10;;
55007;SDS011;40902;45.116;21.296;2023-04-03T16:57:04;6.90;;;2.50;;